Time;durP1;ratioP1;P1;durP2;ratioP2;P2;SDS_P1;SDS_P2;PMS_P1;PMS_P2;Temp;Humidity;BMP_temperature;BMP_pressure;BME280_temperature;BME280_humidity;BME280_pressure;Samples;Min_cycle;Max_cycle;Signal;HPM_P1;HPM_P2
2023/02/17 00:02:37;;;;;;;22.17;19.67;;;;;;;8.22;80.27;100884.88;10303842;28;20054;-63
2023/02/17 00:07:39;;;;;;;24.92;19.48;;;;;;;8.29;80.24;100873.78;10313160;28;20568;-63
2023/02/17 00:12:41;;;;;;;21.05;18.77;;;;;;;8.28;79.82;100873.88;10310726;28;20565;-65
2023/02/17 00:17:42;;;;;;;23.42;20.17;;;;;;;8.17;79.73;100855.97;10331928;28;20058;-63
2023/02/17 00:22:43;;;;;;;19.77;17.80;;;;;;;8.30;79.95;100866.66;10306493;28;20046;-63
2023/02/17 00:27:46;;;;;;;20.48;18.35;;;;;;;8.29;79.90;100865.00;10308499;28;20497;-63
2023/02/17 00:32:47;;;;;;;21.42;19.13;;;;;;;8.31;80.10;100847.16;10308730;28;20058;-64
2023/02/17 00:37:49;;;;;;;19.38;17.38;;;;;;;8.28;79.56;100852.66;10307847;28;20555;-63
2023/02/17 00:42:53;;;;;;;20.38;18.30;;;;;;;8.12;79.71;100845.66;10305311;28;21021;-64
2023/02/17 00:47:55;;;;;;;22.02;19.60;;;;;;;8.18;79.44;100860.34;10306092;28;20662;-65
2023/02/17 00:52:56;;;;;;;21.00;17.70;;;;;;;8.14;79.55;100867.63;10308263;28;20054;-64
2023/02/17 00:57:58;;;;;;;21.73;19.40;;;;;;;8.19;79.95;100866.50;10307575;28;20042;-63
2023/02/17 01:02:59;;;;;;;20.77;18.38;;;;;;;8.14;79.62;100858.81;10303970;28;20141;-65
2023/02/17 01:08:01;;;;;;;22.27;19.98;;;;;;;8.24;79.14;100875.88;10305929;28;20050;-65
2023/02/17 01:13:02;;;;;;;21.88;19.08;;;;;;;8.30;79.25;100877.28;10308102;28;20164;-64
2023/02/17 01:18:04;;;;;;;20.98;17.95;;;;;;;8.39;78.80;100894.44;10300079;28;20042;-64
2023/02/17 01:23:07;;;;;;;22.58;19.63;;;;;;;8.41;78.86;100874.84;10303843;28;20137;-64
2023/02/17 01:28:14;;;;;;;21.17;18.52;;;;;;;8.48;78.29;100865.59;10305444;28;20247;-64
2023/02/17 01:33:15;;;;;;;20.27;18.17;;;;;;;8.53;77.71;100860.00;10296804;28;20181;-66
2023/02/17 01:38:17;;;;;;;21.98;19.38;;;;;;;8.55;77.89;100857.25;10301627;28;20042;-64
2023/02/17 01:43:18;;;;;;;18.42;16.58;;;;;;;8.59;77.86;100840.19;10307127;28;20125;-63
2023/02/17 01:48:47;;;;;;;20.10;18.00;;;;;;;8.61;77.55;100833.81;10303889;28;20077;-62
2023/02/17 01:54:03;;;;;;;18.45;16.42;;;;;;;8.62;77.47;100824.06;10303369;28;20061;-64
2023/02/17 01:59:11;;;;;;;18.13;16.23;;;;;;;8.67;77.54;100814.00;10306559;28;20054;-62
2023/02/17 02:04:16;;;;;;;18.95;16.40;;;;;;;8.66;77.68;100799.03;10305661;28;20062;-64
2023/02/17 02:09:22;;;;;;;15.40;13.75;;;;;;;8.59;78.02;100782.66;10308601;28;20196;-64
2023/02/17 02:14:23;;;;;;;20.15;14.48;;;;;;;8.65;78.59;100797.34;10310039;28;20053;-69
2023/02/17 02:20:02;;;;;;;18.75;14.68;;;;;;;8.71;78.41;100770.41;10307693;28;20120;-61
2023/02/17 02:25:34;;;;;;;17.10;15.18;;;;;;;8.62;78.28;100766.53;10305576;28;20086;-63
2023/02/17 02:31:02;;;;;;;19.90;15.77;;;;;;;8.52;78.96;100764.56;10298366;28;20053;-63
2023/02/17 02:36:29;;;;;;;16.40;14.70;;;;;;;8.43;79.54;100744.75;10310573;28;20188;-63
2023/02/17 02:41:40;;;;;;;16.02;13.85;;;;;;;8.42;79.86;100743.91;10330811;28;20095;-62
2023/02/17 02:46:41;;;;;;;15.00;13.43;;;;;;;8.43;80.08;100737.63;10320297;28;21406;-62
2023/02/17 02:51:52;;;;;;;14.90;12.95;;;;;;;8.51;80.65;100736.31;10315357;28;20081;-63
2023/02/17 02:57:09;;;;;;;13.98;12.38;;;;;;;8.58;80.70;100742.94;10305238;28;20045;-62
2023/02/17 03:02:15;;;;;;;14.73;13.23;;;;;;;8.63;81.28;100727.56;10310270;28;20128;-63
2023/02/17 03:07:23;;;;;;;14.20;12.73;;;;;;;8.54;81.41;100704.28;10317421;28;20140;-63
2023/02/17 03:12:26;;;;;;;14.70;13.00;;;;;;;8.71;82.05;100727.94;10312191;28;20125;-61
2023/02/17 03:17:32;;;;;;;13.43;12.07;;;;;;;8.76;82.86;100715.19;10311743;28;20293;-62
2023/02/17 03:22:40;;;;;;;11.85;10.43;;;;;;;8.83;83.85;100716.50;10304335;28;20056;-63
2023/02/17 03:27:42;;;;;;;11.02;9.95;;;;;;;8.92;84.70;100711.56;10318822;28;20042;-63
2023/02/17 03:32:43;;;;;;;10.45;9.20;;;;;;;9.05;84.40;100724.84;10310112;28;20053;-62
2023/02/17 03:37:44;;;;;;;10.93;9.05;;;;;;;9.15;84.79;100720.63;10313757;28;20053;-63
2023/02/17 03:42:46;;;;;;;13.60;9.18;;;;;;;9.22;84.82;100721.06;10321272;28;20460;-63
2023/02/17 03:47:48;;;;;;;9.60;8.35;;;;;;;9.19;84.43;100707.03;10317918;28;20058;-64
2023/02/17 03:52:49;;;;;;;9.60;8.45;;;;;;;9.35;84.41;100724.59;10309441;28;20046;-64
2023/02/17 03:57:51;;;;;;;10.98;8.68;;;;;;;9.33;84.29;100697.28;10315191;28;20057;-64
2023/02/17 04:02:52;;;;;;;9.63;8.15;;;;;;;9.43;84.71;100711.66;10311799;28;20045;-62
2023/02/17 04:07:54;;;;;;;9.65;8.10;;;;;;;9.46;84.68;100714.09;10312422;28;20204;-64
2023/02/17 04:12:55;;;;;;;10.73;8.15;;;;;;;9.46;85.63;100722.06;10309526;28;20060;-64
2023/02/17 04:17:56;;;;;;;8.55;7.57;;;;;;;9.50;85.80;100715.59;10311304;28;20060;-64
2023/02/17 04:22:58;;;;;;;9.90;7.40;;;;;;;9.41;86.57;100707.38;10311059;28;20073;-63
2023/02/17 04:28:00;;;;;;;8.98;7.40;;;;;;;9.42;87.15;100712.59;10313557;28;20784;-63
2023/02/17 04:33:03;;;;;;;7.93;6.90;;;;;;;9.54;87.31;100722.38;10310515;28;20057;-63
2023/02/17 04:38:05;;;;;;;7.38;6.68;;;;;;;9.52;86.92;100712.81;10309724;28;20508;-63
2023/02/17 04:43:07;;;;;;;8.63;7.35;;;;;;;9.37;86.79;100706.75;10310395;28;20977;-66
2023/02/17 04:48:08;;;;;;;8.35;7.55;;;;;;;9.49;86.72;100736.97;10311610;28;20645;-63
2023/02/17 04:53:10;;;;;;;9.93;8.35;;;;;;;9.50;86.12;100725.34;10310266;28;20057;-62
2023/02/17 04:58:12;;;;;;;9.27;7.10;;;;;;;9.49;86.02;100724.50;10315152;28;20201;-64
2023/02/17 05:03:13;;;;;;;11.60;8.25;;;;;;;9.44;86.04;100715.97;10331196;28;20057;-63
2023/02/17 05:08:14;;;;;;;8.73;7.93;;;;;;;9.44;86.56;100705.34;10316954;28;20056;-62
2023/02/17 05:13:16;;;;;;;8.02;7.10;;;;;;;9.45;87.31;100717.69;10305020;28;20143;-63
2023/02/17 05:18:17;;;;;;;8.68;6.93;;;;;;;9.50;87.64;100715.59;10309470;28;20048;-63
2023/02/17 05:23:21;;;;;;;10.50;8.18;;;;;;;9.48;88.88;100706.84;10301232;28;22190;-65
2023/02/17 05:28:22;;;;;;;7.63;6.63;;;;;;;9.40;89.39;100693.25;10309514;28;20521;-64
2023/02/17 05:33:24;;;;;;;7.22;5.93;;;;;;;9.51;90.01;100700.50;10309330;28;20065;-63
2023/02/17 05:38:25;;;;;;;6.80;6.03;;;;;;;9.55;90.90;100717.94;10306484;28;20067;-63
2023/02/17 05:43:26;;;;;;;6.47;5.88;;;;;;;9.59;91.50;100721.22;10309670;28;20068;-65
2023/02/17 05:48:28;;;;;;;6.57;5.97;;;;;;;9.61;91.88;100737.91;10307710;28;20145;-63
2023/02/17 05:53:30;;;;;;;9.50;6.47;;;;;;;9.60;92.14;100744.19;10300764;28;20509;-64
2023/02/17 05:58:31;;;;;;;6.70;6.00;;;;;;;9.66;92.34;100751.75;10305028;28;20727;-65
2023/02/17 06:03:33;;;;;;;8.13;5.80;;;;;;;9.47;92.32;100701.66;10308312;28;20227;-61
2023/02/17 06:08:35;;;;;;;6.28;5.25;;;;;;;9.75;92.44;100737.81;10317780;28;20048;-63
2023/02/17 06:13:36;;;;;;;5.18;4.68;;;;;;;9.68;92.59;100718.78;10313935;28;20057;-64
2023/02/17 06:18:37;;;;;;;7.22;5.05;;;;;;;9.75;92.83;100719.19;10307752;28;21430;-63
2023/02/17 06:23:39;;;;;;;5.72;5.13;;;;;;;9.69;93.15;100722.28;10305700;28;21821;-63
2023/02/17 06:28:40;;;;;;;5.22;4.55;;;;;;;9.73;93.08;100715.81;10310279;28;20439;-63
2023/02/17 06:33:41;;;;;;;6.30;5.00;;;;;;;9.77;93.25;100717.28;10308539;28;20155;-63
2023/02/17 06:38:43;;;;;;;5.63;4.43;;;;;;;9.72;93.68;100708.78;10303028;28;20185;-62
2023/02/17 06:43:45;;;;;;;4.70;3.85;;;;;;;9.76;93.68;100710.28;10307360;28;20104;-65
2023/02/17 06:48:46;;;;;;;4.25;3.85;;;;;;;9.84;93.97;100723.03;10315408;28;20098;-65
2023/02/17 06:53:48;;;;;;;4.30;3.72;;;;;;;9.81;94.73;100734.72;10311967;28;20794;-63
2023/02/17 06:58:50;;;;;;;5.65;4.22;;;;;;;9.86;94.98;100753.00;10311533;28;20072;-63
2023/02/17 07:03:52;;;;;;;5.90;4.65;;;;;;;9.88;94.83;100730.69;10314307;28;20050;-63
2023/02/17 07:08:54;;;;;;;4.05;3.65;;;;;;;9.98;94.89;100743.31;10310396;28;20093;-64
2023/02/17 07:13:56;;;;;;;6.82;3.95;;;;;;;9.96;95.01;100738.13;10314692;28;20065;-67
2023/02/17 07:18:58;;;;;;;4.82;4.07;;;;;;;9.99;95.94;100742.38;10305335;28;20857;-64
2023/02/17 07:23:59;;;;;;;4.93;3.58;;;;;;;10.10;96.31;100750.44;10308732;28;20524;-63
2023/02/17 07:29:00;;;;;;;3.80;3.50;;;;;;;10.06;95.46;100741.00;10325366;28;20053;-63
2023/02/17 07:34:03;;;;;;;3.72;3.42;;;;;;;9.97;95.71;100728.31;10310001;28;20049;-63
2023/02/17 07:39:05;;;;;;;3.85;3.45;;;;;;;10.05;95.89;100737.47;10303261;28;20099;-63
2023/02/17 07:44:07;;;;;;;3.58;3.28;;;;;;;10.09;95.67;100741.63;10307706;28;20067;-64
2023/02/17 07:49:08;;;;;;;4.65;3.60;;;;;;;10.02;95.45;100732.34;10304587;28;20060;-64
2023/02/17 07:54:12;;;;;;;4.45;4.05;;;;;;;10.13;95.63;100728.94;10312209;28;20505;-65
2023/02/17 07:59:14;;;;;;;3.33;3.03;;;;;;;10.22;95.16;100728.31;10308360;28;20060;-64
2023/02/17 08:04:15;;;;;;;5.00;3.38;;;;;;;10.23;94.65;100735.31;10309389;28;20183;-64
2023/02/17 08:14:37;;;;;;;3.70;2.75;;;;;;;10.16;93.74;100720.72;10351782;28;20054;-63
2023/02/17 08:19:39;;;;;;;5.25;3.13;;;;;;;10.31;93.56;100716.13;10339079;28;21097;-62
2023/02/17 08:24:49;;;;;;;2.97;2.70;;;;;;;10.37;92.73;100730.84;10329782;28;20065;-63
2023/02/17 08:29:50;;;;;;;2.85;2.50;;;;;;;10.41;91.92;100727.00;10330405;28;20077;-64
2023/02/17 08:34:55;;;;;;;2.85;2.60;;;;;;;10.45;90.89;100715.19;10317900;28;20046;-64
2023/02/17 08:40:00;;;;;;;3.20;2.90;;;;;;;10.69;90.31;100736.50;10317874;28;20056;-64
2023/02/17 08:45:02;;;;;;;;;;;;;;;10.75;88.90;100725.41;10316528;28;20070;-63
2023/02/17 08:50:06;;;;;;;4.72;2.85;;;;;;;10.74;88.72;100744.16;10311080;28;20019;-63
2023/02/17 08:55:08;;;;;;;4.07;2.80;;;;;;;10.75;89.13;100745.84;10318205;28;20901;-64
2023/02/17 09:00:10;;;;;;;3.10;2.80;;;;;;;10.82;89.38;100739.09;10312002;28;21723;-63
2023/02/17 09:05:14;;;;;;;2.78;2.58;;;;;;;10.88;90.24;100735.97;10311384;28;20469;-64
2023/02/17 09:10:15;;;;;;;4.10;3.20;;;;;;;10.78;91.05;100750.94;10310291;28;20058;-65
2023/02/17 09:15:17;;;;;;;3.33;2.90;;;;;;;10.68;92.99;100732.13;10312472;28;20552;-64
2023/02/17 09:20:18;;;;;;;2.75;2.55;;;;;;;10.52;95.75;100745.69;10311833;28;20054;-66
2023/02/17 09:25:25;;;;;;;4.07;3.40;;;;;;;10.61;96.89;100733.53;10307303;28;20050;-65
2023/02/17 09:30:27;;;;;;;3.53;3.20;;;;;;;10.53;97.34;100747.41;10316079;28;20366;-65
2023/02/17 09:35:28;;;;;;;3.55;3.25;;;;;;;10.54;97.45;100749.13;10311847;28;20061;-66
2023/02/17 09:40:47;;;;;;;4.78;4.07;;;;;;;10.44;98.06;100729.44;10316313;28;20049;-65
2023/02/17 09:45:55;;;;;;;4.93;4.15;;;;;;;10.57;97.74;100719.59;10319592;28;20149;-65
2023/02/17 09:51:05;;;;;;;4.57;4.13;;;;;;;10.64;97.91;100732.47;10334980;28;20360;-66
2023/02/17 09:56:15;;;;;;;5.47;4.00;;;;;;;10.73;97.62;100743.31;10314677;28;20676;-66
2023/02/17 10:01:21;;;;;;;5.28;4.18;;;;;;;10.79;97.05;100752.63;10305700;28;20049;-66
2023/02/17 10:06:28;;;;;;;4.85;4.45;;;;;;;10.76;97.57;100747.53;10311308;28;20532;-66
2023/02/17 10:11:31;;;;;;;5.65;5.10;;;;;;;10.80;97.39;100757.00;10322676;28;20123;-66
2023/02/17 10:16:42;;;;;;;5.95;5.35;;;;;;;10.87;96.89;100750.28;10307662;28;20050;-66
2023/02/17 10:21:57;;;;;;;5.68;5.13;;;;;;;10.98;96.62;100752.13;10307997;28;20049;-66
2023/02/17 10:27:17;;;;;;;6.20;5.40;;;;;;;11.11;95.83;100746.75;10306384;28;20053;-65
2023/02/17 10:32:26;;;;;;;6.25;5.50;;;;;;;11.45;93.33;100754.84;10308870;28;20057;-66
2023/02/17 10:38:00;;;;;;;7.45;5.57;;;;;;;11.84;90.61;100760.75;10304077;28;20057;-64
2023/02/17 10:43:05;;;;;;;5.10;4.40;;;;;;;12.07;88.71;100744.78;10280521;28;20050;-64
2023/02/17 10:48:12;;;;;;;4.88;4.38;;;;;;;12.06;88.86;100745.78;10307193;28;20544;-62
2023/02/17 10:53:18;;;;;;;5.78;4.90;;;;;;;12.32;86.95;100751.69;10300842;28;20437;-65
2023/02/17 10:58:39;;;;;;;6.20;4.43;;;;;;;12.48;84.49;100721.94;10309408;28;20479;-64
2023/02/17 11:03:40;;;;;;;4.78;4.20;;;;;;;12.44;85.39;100749.88;10307434;28;20052;-66
2023/02/17 11:08:50;;;;;;;5.65;4.70;;;;;;;12.11;87.24;100751.56;10308178;28;20127;-66
2023/02/17 11:14:03;;;;;;;7.25;4.70;;;;;;;12.00;87.81;100755.94;10311332;28;20124;-67
2023/02/17 11:19:06;;;;;;;4.57;4.18;;;;;;;12.08;87.92;100746.50;10308718;28;20612;-68
2023/02/17 11:24:11;;;;;;;4.43;4.03;;;;;;;11.91;87.49;100729.94;10310476;28;20131;-65
2023/02/17 11:29:20;;;;;;;4.32;3.85;;;;;;;12.03;87.81;100754.84;10307174;28;20053;-64
2023/02/17 11:34:27;;;;;;;4.30;3.38;;;;;;;11.97;87.80;100747.34;10301556;28;20077;-64
2023/02/17 11:39:29;;;;;;;4.18;3.78;;;;;;;11.93;88.01;100727.19;10303428;28;20416;-64
2023/02/17 11:44:30;;;;;;;5.32;3.85;;;;;;;12.06;87.64;100735.94;10301228;28;20469;-64
2023/02/17 11:49:50;;;;;;;4.18;3.78;;;;;;;12.13;87.76;100739.81;10310957;28;20061;-65
2023/02/17 11:55:22;;;;;;;5.60;3.55;;;;;;;12.19;87.28;100722.47;10307427;28;20052;-65
2023/02/17 12:00:33;;;;;;;5.50;3.85;;;;;;;12.19;87.47;100727.81;10301447;28;20131;-65
2023/02/17 12:05:54;;;;;;;4.15;3.33;;;;;;;12.19;87.92;100701.13;10311980;28;20049;-63
2023/02/17 12:11:15;;;;;;;5.75;4.13;;;;;;;12.19;87.84;100707.31;10317472;28;20055;-64
2023/02/17 12:16:30;;;;;;;4.35;3.05;;;;;;;12.28;87.85;100695.03;10318608;28;20571;-70
2023/02/17 12:21:55;;;;;;;3.83;3.42;;;;;;;12.35;87.41;100685.53;10309324;28;20069;-65
2023/02/17 12:27:07;;;;;;;;;;;;;;;12.49;87.14;100691.59;10305219;28;20139;-64
2023/02/17 12:32:31;;;;;;;3.05;2.75;;;;;;;12.57;85.77;100651.75;10305870;28;20431;-64
2023/02/17 12:37:41;;;;;;;3.42;2.40;;;;;;;12.99;83.77;100677.72;10304433;28;20049;-65
2023/02/17 12:42:56;;;;;;;2.15;1.85;;;;;;;13.20;82.32;100656.34;10304200;28;20050;-65
2023/02/17 12:48:03;;;;;;;2.70;1.85;;;;;;;13.23;80.77;100613.28;10306726;28;20042;-65
2023/02/17 12:53:12;;;;;;;2.92;1.80;;;;;;;13.59;79.60;100660.09;10305708;28;20049;-64
2023/02/17 12:58:18;;;;;;;2.72;1.80;;;;;;;13.81;78.17;100641.31;10301023;28;20053;-65
2023/02/17 13:03:20;;;;;;;6.78;2.88;;;;;;;13.79;78.36;100647.66;10308915;28;20201;-64
2023/02/17 13:08:28;;;;;;;1.52;1.27;;;;;;;13.65;78.01;100631.97;10306211;28;20053;-64
2023/02/17 13:13:32;;;;;;;1.90;1.30;;;;;;;13.88;76.90;100647.84;10304821;28;20062;-64
2023/02/17 13:18:36;;;;;;;1.13;0.60;;;;;;;13.78;77.44;100654.00;10307800;28;20054;-64
2023/02/17 13:23:39;;;;;;;1.20;0.90;;;;;;;13.78;77.19;100648.66;10311823;28;21598;-68
2023/02/17 13:28:41;;;;;;;2.73;1.10;;;;;;;13.98;76.53;100632.66;10307521;28;20096;-65
2023/02/17 13:33:57;;;;;;;1.45;1.05;;;;;;;15.40;70.98;100661.75;10301551;28;20127;-64
2023/02/17 13:39:02;;;;;;;1.73;0.93;;;;;;;14.83;71.52;100650.00;10310622;28;20055;-66
2023/02/17 13:44:23;;;;;;;1.33;1.02;;;;;;;14.11;74.93;100627.03;10307765;28;20045;-64
2023/02/17 13:49:26;;;;;;;1.13;0.95;;;;;;;13.88;76.59;100615.72;10312696;28;20129;-65
2023/02/17 13:54:27;;;;;;;0.97;0.90;;;;;;;13.49;78.54;100613.72;10310802;28;20058;-65
2023/02/17 13:59:29;;;;;;;1.88;1.20;;;;;;;13.50;79.57;100634.16;10306246;28;20057;-65
2023/02/17 14:04:31;;;;;;;2.03;1.35;;;;;;;13.57;79.18;100629.97;10296370;28;21324;-64
2023/02/17 14:09:34;;;;;;;1.60;1.33;;;;;;;13.45;79.54;100633.72;10303784;28;20688;-64
2023/02/17 14:14:37;;;;;;;2.22;0.98;;;;;;;13.47;79.54;100607.69;10308847;28;20108;-65
2023/02/17 14:19:47;;;;;;;1.45;1.23;;;;;;;13.57;79.45;100616.59;10306927;28;20046;-64
2023/02/17 14:25:11;;;;;;;2.20;1.33;;;;;;;13.42;80.30;100597.38;10306762;28;20231;-64
2023/02/17 14:30:34;;;;;;;1.37;0.90;;;;;;;13.48;80.48;100603.16;10299186;28;20046;-65
2023/02/17 14:35:38;;;;;;;4.30;1.50;;;;;;;13.43;80.88;100593.72;10314303;28;20050;-64
2023/02/17 14:40:39;;;;;;;2.15;1.60;;;;;;;13.33;81.49;100614.22;10312001;28;20678;-65
2023/02/17 14:45:41;;;;;;;1.83;1.40;;;;;;;13.38;81.40;100609.31;10304526;28;20428;-65
2023/02/17 14:50:43;;;;;;;1.70;1.58;;;;;;;13.43;81.50;100611.59;10310842;28;20378;-64
2023/02/17 14:55:52;;;;;;;1.83;1.65;;;;;;;13.47;80.91;100604.16;10303925;28;20058;-64
2023/02/17 15:00:54;;;;;;;1.83;1.40;;;;;;;13.46;80.94;100611.31;10310230;28;20531;-63
2023/02/17 15:05:55;;;;;;;2.10;1.70;;;;;;;13.48;80.96;100603.16;10307183;28;20171;-64
2023/02/17 15:10:57;;;;;;;1.90;1.15;;;;;;;13.43;81.09;100612.44;10313484;28;20050;-64
2023/02/17 15:15:58;;;;;;;1.83;0.93;;;;;;;13.50;80.96;100622.63;10311864;28;20057;-63
2023/02/17 15:21:00;;;;;;;2.03;1.38;;;;;;;13.36;81.36;100616.66;10321035;28;20050;-64
2023/02/17 15:26:01;;;;;;;2.58;0.98;;;;;;;13.30;81.76;100629.66;10326266;28;20052;-64
2023/02/17 15:31:03;;;;;;;1.33;1.02;;;;;;;13.33;81.48;100614.22;10320902;28;20062;-67
2023/02/17 15:36:05;;;;;;;1.30;1.10;;;;;;;13.34;81.52;100602.53;10322073;28;20046;-64
2023/02/17 15:41:24;;;;;;;1.70;0.90;;;;;;;13.30;81.77;100617.16;10321436;28;20146;-65
2023/02/17 15:46:29;;;;;;;0.95;0.85;;;;;;;13.32;81.96;100603.63;10320712;28;20195;-64
2023/02/17 15:51:31;;;;;;;1.10;0.70;;;;;;;13.28;81.96;100600.38;10321165;28;20055;-65
2023/02/17 15:56:45;;;;;;;1.48;0.60;;;;;;;13.28;81.94;100589.69;10315620;28;20053;-65
2023/02/17 16:01:47;;;;;;;1.05;0.52;;;;;;;13.26;81.83;100605.00;10319848;28;20050;-66
2023/02/17 16:06:49;;;;;;;0.80;0.65;;;;;;;13.27;82.02;100628.09;10322734;28;20053;-64
2023/02/17 16:11:53;;;;;;;1.52;1.15;;;;;;;13.25;82.20;100630.88;10319582;28;20053;-64
2023/02/17 16:16:54;;;;;;;0.73;0.50;;;;;;;13.17;81.99;100605.81;10321058;28;20050;-65
2023/02/17 16:21:56;;;;;;;1.13;0.60;;;;;;;13.19;82.08;100619.88;10324549;28;20053;-65
2023/02/17 16:26:57;;;;;;;0.95;0.40;;;;;;;13.12;82.05;100603.53;10325107;28;20049;-65
2023/02/17 16:31:58;;;;;;;0.70;0.60;;;;;;;13.14;82.38;100630.97;10312579;28;20056;-64
2023/02/17 16:37:02;;;;;;;0.70;0.40;;;;;;;13.13;82.56;100631.09;10316051;28;20115;-65
2023/02/17 16:42:04;;;;;;;0.93;0.50;;;;;;;13.14;82.64;100644.34;10318467;28;20053;-66
2023/02/17 16:47:15;;;;;;;1.55;0.40;;;;;;;13.08;82.46;100635.00;10323652;28;20053;-65
2023/02/17 16:52:25;;;;;;;1.45;0.80;;;;;;;12.93;82.85;100625.63;10318672;28;20084;-68
2023/02/17 16:57:27;;;;;;;2.30;1.05;;;;;;;13.00;82.91;100642.84;10323522;28;20109;-67
2023/02/17 17:02:29;;;;;;;0.85;0.70;;;;;;;12.85;83.34;100639.63;10321495;28;21127;-66
2023/02/17 17:07:31;;;;;;;1.00;0.40;;;;;;;12.88;83.70;100649.19;10312959;28;20133;-66
2023/02/17 17:12:32;;;;;;;2.10;0.65;;;;;;;12.80;83.64;100644.50;10310614;28;20053;-65
2023/02/17 17:17:39;;;;;;;0.82;0.47;;;;;;;12.77;83.72;100652.75;10309959;28;20156;-65
2023/02/17 17:22:42;;;;;;;1.73;0.80;;;;;;;12.88;83.43;100665.22;10310119;28;20156;-65
2023/02/17 17:27:44;;;;;;;1.42;0.85;;;;;;;12.93;83.10;100665.69;10307516;28;20065;-66
2023/02/17 17:32:46;;;;;;;1.20;1.10;;;;;;;12.91;82.71;100665.84;10312206;28;20046;-65
2023/02/17 17:37:48;;;;;;;2.28;1.00;;;;;;;12.86;83.04;100672.53;10313771;28;20064;-65
2023/02/17 17:42:50;;;;;;;1.58;1.17;;;;;;;12.87;83.45;100679.56;10313691;28;20057;-65
2023/02/17 17:47:52;;;;;;;1.25;1.00;;;;;;;12.85;83.68;100682.38;10316654;28;20070;-65
2023/02/17 17:52:53;;;;;;;2.13;1.30;;;;;;;12.86;83.64;100685.88;10316141;28;20045;-65
2023/02/17 17:57:54;;;;;;;1.88;1.27;;;;;;;12.79;83.91;100703.41;10310571;28;20116;-65
2023/02/17 18:02:56;;;;;;;0.77;0.68;;;;;;;12.72;82.88;100697.72;10306987;28;20069;-66
2023/02/17 18:07:57;;;;;;;1.83;1.25;;;;;;;12.86;83.01;100737.47;10309429;28;20100;-66
2023/02/17 18:12:59;;;;;;;1.85;1.30;;;;;;;12.90;82.23;100751.47;10305702;28;20049;-66
2023/02/17 18:18:01;;;;;;;1.00;0.90;;;;;;;12.82;82.34;100751.22;10298677;28;20551;-66
2023/02/17 18:23:02;;;;;;;1.67;1.27;;;;;;;12.85;82.61;100761.66;10319574;28;20053;-64
2023/02/17 18:28:04;;;;;;;1.40;1.17;;;;;;;12.75;83.93;100772.25;10307345;28;20416;-65
2023/02/17 18:33:05;;;;;;;2.42;1.48;;;;;;;12.73;84.82;100779.56;10308369;28;20728;-65
2023/02/17 18:38:06;;;;;;;1.30;1.20;;;;;;;12.68;85.50;100776.41;10308311;28;20056;-65
2023/02/17 18:43:08;;;;;;;2.35;1.25;;;;;;;12.61;85.88;100802.78;10300876;28;20046;-65
2023/02/17 18:48:09;;;;;;;1.17;1.08;;;;;;;12.63;85.68;100806.16;10312803;28;20662;-66
2023/02/17 18:53:11;;;;;;;1.75;1.27;;;;;;;12.55;85.19;100795.25;10310658;28;22248;-65
2023/02/17 18:58:12;;;;;;;1.33;1.17;;;;;;;12.60;85.23;100806.41;10308048;28;20563;-66
2023/02/17 19:03:14;;;;;;;1.50;1.40;;;;;;;12.57;85.08;100808.47;10312182;28;20064;-64
2023/02/17 19:08:15;;;;;;;1.30;1.13;;;;;;;12.61;84.75;100828.59;10307333;28;20665;-66
2023/02/17 19:13:17;;;;;;;1.70;1.60;;;;;;;12.43;84.68;100804.22;10310299;28;20064;-65
2023/02/17 19:18:19;;;;;;;1.85;1.50;;;;;;;12.65;84.56;100835.41;10317199;28;20064;-66
2023/02/17 19:23:20;;;;;;;2.08;1.55;;;;;;;12.67;84.31;100844.13;10319068;28;20073;-64
2023/02/17 19:28:22;;;;;;;2.00;1.80;;;;;;;12.62;84.06;100831.16;10308526;28;20078;-65
2023/02/17 19:33:26;;;;;;;2.40;1.98;;;;;;;12.64;84.18;100839.03;10317761;28;20068;-64
2023/02/17 19:38:28;;;;;;;3.33;1.90;;;;;;;12.62;85.03;100851.69;10306464;28;20061;-64
2023/02/17 19:43:30;;;;;;;2.33;2.13;;;;;;;12.75;86.38;100846.22;10307446;28;20050;-64
2023/02/17 19:48:32;;;;;;;2.50;2.17;;;;;;;12.77;84.90;100850.44;10316670;28;20054;-65
2023/02/17 19:53:34;;;;;;;2.78;2.20;;;;;;;12.63;84.94;100864.91;10309361;28;20049;-64
2023/02/17 19:58:36;;;;;;;2.63;2.10;;;;;;;12.54;85.01;100849.63;10317706;28;20056;-66
2023/02/17 20:03:38;;;;;;;3.85;2.08;;;;;;;12.57;84.56;100870.75;10306173;28;20046;-65
2023/02/17 20:08:39;;;;;;;3.10;2.00;;;;;;;12.60;84.68;100865.16;10305339;28;20054;-64
2023/02/17 20:13:41;;;;;;;3.35;2.58;;;;;;;12.51;84.96;100871.22;10308868;28;20572;-63
2023/02/17 20:18:50;;;;;;;2.50;2.30;;;;;;;12.54;84.97;100871.00;10309952;28;20045;-64
2023/02/17 20:23:51;;;;;;;2.75;2.50;;;;;;;12.55;85.74;100872.69;10313767;28;20098;-64
2023/02/17 20:28:53;;;;;;;5.43;3.22;;;;;;;12.56;85.93;100874.38;10309655;28;20046;-64
2023/02/17 20:33:55;;;;;;;4.63;3.33;;;;;;;12.48;86.85;100876.81;10311098;28;20056;-64
2023/02/17 20:38:57;;;;;;;5.35;3.50;;;;;;;12.46;87.72;100884.06;10310157;28;20057;-62
2023/02/17 20:44:01;;;;;;;4.03;3.63;;;;;;;12.42;89.20;100880.81;10315037;28;20037;-64
2023/02/17 20:49:03;;;;;;;3.85;3.55;;;;;;;12.49;90.15;100883.84;10314460;28;20080;-66
2023/02/17 20:54:04;;;;;;;4.38;3.97;;;;;;;12.45;90.77;100887.75;10314088;28;20053;-64
2023/02/17 20:59:07;;;;;;;5.88;4.47;;;;;;;12.43;90.79;100884.31;10312245;28;20049;-66
2023/02/17 21:04:09;;;;;;;4.60;4.15;;;;;;;12.47;91.07;100885.78;10314137;28;20140;-65
2023/02/17 21:09:14;;;;;;;5.03;4.53;;;;;;;12.49;91.05;100891.84;10306290;28;20050;-64
2023/02/17 21:14:15;;;;;;;4.53;4.00;;;;;;;12.55;90.53;100894.06;10308583;28;20050;-65
2023/02/17 21:19:18;;;;;;;5.75;4.53;;;;;;;12.54;90.49;100897.69;10308700;28;20710;-64
2023/02/17 21:24:19;;;;;;;4.72;4.32;;;;;;;12.45;92.52;100898.41;10308908;28;20045;-64
2023/02/17 21:29:21;;;;;;;4.57;4.18;;;;;;;12.53;92.20;100901.31;10306394;28;20050;-65
2023/02/17 21:34:23;;;;;;;4.68;3.92;;;;;;;12.59;92.37;100906.19;10306965;28;20793;-65
2023/02/17 21:39:24;;;;;;;5.50;5.00;;;;;;;12.55;92.45;100888.72;10307112;28;20577;-65
2023/02/17 21:49:46;;;;;;;4.53;4.13;;;;;;;12.41;89.76;100881.78;10318700;28;20057;-65
2023/02/17 21:54:48;;;;;;;5.32;4.55;;;;;;;12.44;88.78;100891.38;10321422;28;20057;-65
2023/02/17 21:59:49;;;;;;;4.55;4.15;;;;;;;12.49;88.66;100889.19;10344262;28;20053;-65
2023/02/17 22:04:55;;;;;;;3.88;3.58;;;;;;;12.57;88.13;100893.94;10345210;28;20098;-64
2023/02/17 22:09:59;;;;;;;3.70;3.30;;;;;;;12.45;88.40;100880.56;10326559;28;20087;-64
2023/02/17 22:15:03;;;;;;;3.65;3.35;;;;;;;12.36;88.97;100891.97;10316996;28;20045;-65
2023/02/17 22:20:05;;;;;;;4.70;4.20;;;;;;;12.38;89.37;100888.22;10318516;28;20085;-64
2023/02/17 22:25:07;;;;;;;6.57;4.13;;;;;;;12.32;89.91;100898.50;10314088;28;20163;-65
2023/02/17 22:30:09;;;;;;;3.95;3.55;;;;;;;12.27;90.43;100901.53;10311379;28;20669;-65
2023/02/17 22:35:10;;;;;;;4.82;4.32;;;;;;;12.14;91.05;100890.09;10318155;28;20053;-64
2023/02/17 22:40:12;;;;;;;4.35;3.95;;;;;;;12.21;90.90;100902.00;10311261;28;20197;-64
2023/02/17 22:45:13;;;;;;;6.22;4.55;;;;;;;12.23;90.88;100900.06;10314512;28;20064;-66
2023/02/17 22:50:15;;;;;;;4.80;4.15;;;;;;;12.25;90.88;100891.94;10319341;28;20093;-67
2023/02/17 22:55:16;;;;;;;5.43;4.22;;;;;;;12.27;91.25;100898.88;10313722;28;20081;-64
2023/02/17 23:00:18;;;;;;;5.00;4.05;;;;;;;12.26;91.16;100878.47;10317241;28;20141;-66
2023/02/17 23:05:19;;;;;;;4.53;4.07;;;;;;;12.30;91.15;100887.94;10316295;28;20069;-65
2023/02/17 23:10:20;;;;;;;4.32;3.92;;;;;;;12.31;90.91;100881.66;10317718;28;20073;-66
2023/02/17 23:15:37;;;;;;;4.20;3.88;;;;;;;12.41;90.86;100891.59;10317503;28;20042;-65
2023/02/17 23:20:42;;;;;;;5.47;4.10;;;;;;;12.40;91.05;100900.59;10312304;28;20058;-65
2023/02/17 23:25:48;;;;;;;4.45;4.05;;;;;;;12.42;91.28;100909.34;10314558;28;20054;-65
2023/02/17 23:30:51;;;;;;;4.38;3.97;;;;;;;12.42;91.81;100912.00;10309685;28;20818;-65